createdAt,value
2022-09-21T00:01:12.762Z,100904.31
2022-09-21T00:03:44.008Z,100905.36
2022-09-21T00:06:19.281Z,100903.45
2022-09-21T00:08:49.954Z,100900.87
2022-09-21T00:11:25.233Z,100901.39
2022-09-21T00:14:01.713Z,100895.69
2022-09-21T00:16:35.217Z,100900.17
2022-09-21T00:19:07.088Z,100898.45
2022-09-21T00:21:38.611Z,100902.94
2022-09-21T00:24:13.039Z,100901.91
2022-09-21T00:26:43.345Z,100900.18
2022-09-21T00:29:14.466Z,100902.60
2022-09-21T00:31:44.794Z,100898.08
2022-09-21T00:34:15.029Z,100903.43
2022-09-21T00:36:45.563Z,100903.80
2022-09-21T00:39:15.802Z,100904.84
2022-09-21T00:41:46.086Z,100906.40
2022-09-21T00:44:28.624Z,100907.26
2022-09-21T00:47:03.864Z,100909.33
2022-09-21T00:49:36.180Z,100912.44
2022-09-21T00:52:08.819Z,100908.25
2022-09-21T00:54:57.899Z,100909.81
2022-09-21T00:57:32.607Z,100909.64
2022-09-21T01:00:08.744Z,100913.42
2022-09-21T01:02:40.429Z,100916.55
2022-09-21T01:05:12.250Z,100922.59
2022-09-21T01:07:47.930Z,100922.23
2022-09-21T01:10:20.275Z,100918.45
2022-09-21T01:13:02.518Z,100920.69
2022-09-21T01:15:32.652Z,100920.86
2022-09-21T01:18:28.813Z,100924.86
2022-09-21T01:21:08.203Z,100929.70
2022-09-21T01:23:48.153Z,100929.52
2022-09-21T01:26:23.943Z,100934.84
2022-09-21T01:29:13.373Z,100933.11
2022-09-21T01:32:00.666Z,100931.20
2022-09-21T01:34:39.566Z,100934.30
2022-09-21T01:37:15.780Z,100930.70
2022-09-21T01:39:49.680Z,100932.76
2022-09-21T01:42:23.306Z,100934.45
2022-09-21T01:44:53.943Z,100929.98
2022-09-21T01:47:25.736Z,100926.36
2022-09-21T01:49:59.209Z,100930.50
2022-09-21T01:52:47.673Z,100934.98
2022-09-21T01:55:28.603Z,100936.86
2022-09-21T01:58:03.284Z,100935.14
2022-09-21T02:00:36.655Z,100938.23
2022-09-21T02:03:41.183Z,100944.80
2022-09-21T02:06:13.187Z,100944.81
2022-09-21T02:08:43.533Z,100946.05
2022-09-21T02:11:14.427Z,100942.25
2022-09-21T02:13:50.099Z,100940.35
2022-09-21T02:16:37.001Z,100940.84
2022-09-21T02:19:13.263Z,100944.31
2022-09-21T02:22:06.279Z,100943.80
2022-09-21T02:24:47.708Z,100944.84
2022-09-21T02:27:48.501Z,100943.98
2022-09-21T02:30:25.184Z,100940.86
2022-09-21T02:33:28.419Z,100942.25
2022-09-21T02:36:09.317Z,100943.46
2022-09-21T02:38:39.503Z,100948.48
2022-09-21T02:41:09.605Z,100952.27
2022-09-21T02:43:55.066Z,100952.80
2022-09-21T02:46:34.738Z,100955.55
2022-09-21T02:49:09.785Z,100960.23
2022-09-21T02:51:47.885Z,100962.84
2022-09-21T02:54:22.260Z,100967.13
2022-09-21T02:56:54.449Z,100965.73
2022-09-21T02:59:25.302Z,100966.94
2022-09-21T03:01:56.693Z,100969.86
2022-09-21T03:04:28.203Z,100969.69
2022-09-21T03:06:58.484Z,100973.30
2022-09-21T03:09:29.601Z,100968.62
2022-09-21T03:12:00.015Z,100973.78
2022-09-21T03:14:30.274Z,100974.82
2022-09-21T03:17:01.350Z,100976.02
2022-09-21T03:19:31.405Z,100978.25
2022-09-21T03:22:01.445Z,100976.83
2022-09-21T03:24:49.031Z,100979.04
2022-09-21T03:27:22.971Z,100979.00
2022-09-21T03:29:53.177Z,100973.95
2022-09-21T03:32:23.496Z,100971.73
2022-09-21T03:34:53.873Z,100977.93
2022-09-21T03:37:25.311Z,100980.33
2022-09-21T03:39:55.494Z,100979.27
2022-09-21T03:42:25.749Z,100984.29
2022-09-21T03:44:56.363Z,100981.70
2022-09-21T03:47:26.921Z,100982.59
2022-09-21T03:49:57.220Z,100985.04
2022-09-21T03:52:27.613Z,100993.86
2022-09-21T03:54:58.121Z,100992.16
2022-09-21T03:57:28.478Z,100995.96
2022-09-21T03:59:58.877Z,100997.01
2022-09-21T04:02:29.191Z,101002.17
2022-09-21T04:04:59.722Z,101002.17
2022-09-21T04:07:34.858Z,101010.27
2022-09-21T04:10:07.644Z,101012.35
2022-09-21T04:12:38.186Z,101018.17
2022-09-21T04:15:12.203Z,101023.50
2022-09-21T04:17:42.923Z,101025.04
2022-09-21T04:20:13.869Z,101028.29
2022-09-21T04:22:45.170Z,101026.05
2022-09-21T04:25:16.810Z,101027.06
2022-09-21T04:27:47.101Z,101022.56
2022-09-21T04:30:18.563Z,101020.11
2022-09-21T04:32:48.891Z,101021.14
2022-09-21T04:35:19.645Z,101022.69
2022-09-21T04:37:57.621Z,101021.14
2022-09-21T04:40:28.548Z,101025.79
2022-09-21T04:42:59.088Z,101032.85
2022-09-21T04:45:29.424Z,101034.05
2022-09-21T04:47:59.678Z,101035.95
2022-09-21T04:50:29.965Z,101039.73
2022-09-21T04:53:07.280Z,101038.34
2022-09-21T04:55:37.699Z,101042.95
2022-09-21T04:58:08.103Z,101044.30
2022-09-21T05:00:38.481Z,101042.20
2022-09-21T05:03:12.038Z,101045.27
2022-09-21T05:05:54.225Z,101040.61
2022-09-21T05:08:40.513Z,101044.74
2022-09-21T05:11:13.393Z,101046.95
2022-09-21T05:13:45.159Z,101049.16
2022-09-21T05:16:17.262Z,101047.75
2022-09-21T05:18:48.410Z,101055.48
2022-09-21T05:21:18.809Z,101060.29
2022-09-21T05:23:52.740Z,101058.21
2022-09-21T05:31:17.990Z,101057.69
2022-09-21T05:34:05.491Z,101062.15
2022-09-21T05:36:53.595Z,101063.52
2022-09-21T05:39:24.189Z,101066.81
2022-09-21T05:41:57.170Z,101070.78
2022-09-21T05:44:29.974Z,101079.42
2022-09-21T05:47:09.994Z,101076.71
2022-09-21T05:50:00.031Z,101079.68
2022-09-21T05:52:45.323Z,101080.74
2022-09-21T05:55:33.861Z,101083.71
2022-09-21T05:58:30.273Z,101080.14
2022-09-21T06:01:30.564Z,101085.71
2022-09-21T06:04:05.349Z,101078.89
2022-09-21T06:06:37.132Z,101079.76
2022-09-21T06:09:07.399Z,101080.81
2022-09-21T06:11:38.094Z,101086.36
2022-09-21T06:14:08.365Z,101081.21
2022-09-21T06:16:42.901Z,101086.95
2022-09-21T06:19:14.709Z,101087.48
2022-09-21T06:26:15.290Z,101091.89
2022-09-21T06:28:45.554Z,101093.27
2022-09-21T06:31:15.796Z,101093.29
2022-09-21T06:33:48.226Z,101089.66
2022-09-21T06:36:19.064Z,101088.96
2022-09-21T06:38:49.086Z,101092.59
2022-09-21T06:41:21.444Z,101094.64
2022-09-21T06:44:58.448Z,101093.44
2022-09-21T06:47:28.815Z,101099.48
2022-09-21T06:49:58.931Z,101098.80
2022-09-21T06:52:29.216Z,101095.66
2022-09-21T06:54:59.734Z,101106.35
2022-09-21T06:57:30.098Z,101106.70
2022-09-21T07:00:00.303Z,101107.73
2022-09-21T07:02:30.730Z,101112.56
2022-09-21T07:05:00.883Z,101111.55
2022-09-21T07:07:31.991Z,101115.39
2022-09-21T07:10:12.158Z,101117.31
2022-09-21T07:12:45.361Z,101121.80
2022-09-21T07:21:24.626Z,101126.06
2022-09-21T07:29:02.301Z,101131.83
2022-09-21T07:31:32.982Z,101137.35
2022-09-21T07:34:03.323Z,101137.88
2022-09-21T07:36:33.383Z,101145.48
2022-09-21T07:39:06.119Z,101147.42
2022-09-21T07:41:36.214Z,101144.52
2022-09-21T07:44:07.214Z,101144.59
2022-09-21T07:46:41.307Z,101138.55
2022-09-21T07:49:16.048Z,101144.08
2022-09-21T07:51:46.892Z,101137.88
2022-09-21T07:54:17.075Z,101140.30
2022-09-21T07:57:07.399Z,101142.23
2022-09-21T07:59:38.008Z,101144.16
2022-09-21T08:02:09.039Z,101143.82
2022-09-21T08:04:39.904Z,101144.39
2022-09-21T08:07:10.182Z,101148.92
2022-09-21T08:09:41.281Z,101150.67
2022-09-21T08:12:12.639Z,101146.88
2022-09-21T08:14:43.866Z,101144.66
2022-09-21T08:17:13.951Z,101144.69
2022-09-21T08:19:44.715Z,101143.99
2022-09-21T08:22:15.502Z,101142.27
2022-09-21T08:24:46.514Z,101145.03
2022-09-21T08:27:20.198Z,101147.29
2022-09-21T08:29:50.722Z,101146.42
2022-09-21T08:32:46.530Z,101146.44
2022-09-21T08:35:11.833Z,101138.39
2022-09-21T08:37:42.164Z,101136.71
2022-09-21T08:44:52.475Z,101144.69
2022-09-21T08:47:41.501Z,101146.25
2022-09-21T08:50:39.321Z,101145.73
2022-09-21T08:53:37.221Z,101143.99
2022-09-21T08:56:07.921Z,101145.56
2022-09-21T08:58:41.882Z,101141.06
2022-09-21T09:01:34.707Z,101144.35
2022-09-21T09:04:51.215Z,101145.90
2022-09-21T09:07:33.820Z,101145.90
2022-09-21T09:10:16.470Z,101142.96
2022-09-21T09:13:24.909Z,101140.22
2022-09-21T09:16:07.076Z,101140.23
2022-09-21T09:19:24.180Z,101142.13
2022-09-21T09:23:04.063Z,101142.98
2022-09-21T09:25:44.723Z,101150.09
2022-09-21T09:28:53.009Z,101148.35
2022-09-21T09:31:39.712Z,101148.69
2022-09-21T09:34:14.938Z,101144.70
2022-09-21T09:36:59.990Z,101144.73
2022-09-21T09:39:32.481Z,101153.02
2022-09-21T09:42:40.409Z,101150.44
2022-09-21T09:45:45.547Z,101145.40
2022-09-21T09:48:18.849Z,101147.15
2022-09-21T09:50:49.812Z,101147.68
2022-09-21T09:53:30.755Z,101148.70
2022-09-21T09:56:02.831Z,101148.70
2022-09-21T09:58:54.389Z,101146.27
2022-09-21T10:01:44.841Z,101145.38
2022-09-21T10:04:18.454Z,101139.27
2022-09-21T10:06:49.163Z,101138.61
2022-09-21T10:09:25.951Z,101139.48
2022-09-21T10:12:19.019Z,101137.91
2022-09-21T10:14:55.073Z,101144.81
2022-09-21T10:17:27.101Z,101143.79
2022-09-21T10:20:05.643Z,101141.53
2022-09-21T10:22:36.641Z,101142.03
2022-09-21T10:25:08.948Z,101138.41
2022-09-21T10:27:44.587Z,101147.79
2022-09-21T10:30:47.136Z,101152.65
2022-09-21T10:33:24.051Z,101161.16
2022-09-21T10:35:55.013Z,101161.52
2022-09-21T10:38:30.108Z,101161.00
2022-09-21T10:41:00.379Z,101162.90
2022-09-21T10:43:44.954Z,101160.30
2022-09-21T10:46:16.184Z,101163.24
2022-09-21T10:48:49.424Z,101166.88
2022-09-21T10:51:30.831Z,101164.44
2022-09-21T10:54:00.932Z,101164.95
2022-09-21T10:56:31.042Z,101164.61
2022-09-21T10:59:23.789Z,101163.41
2022-09-21T11:01:57.451Z,101162.02
2022-09-21T11:04:44.725Z,101164.79
2022-09-21T11:07:32.739Z,101161.52
2022-09-21T11:10:26.895Z,101159.61
2022-09-21T11:13:11.713Z,101156.66
2022-09-21T11:16:06.763Z,101155.45
2022-09-21T11:18:51.699Z,101153.38
2022-09-21T11:21:38.187Z,101155.10
2022-09-21T11:24:43.278Z,101157.69
2022-09-21T11:27:38.629Z,101154.22
2022-09-21T11:30:15.548Z,101146.77
2022-09-21T11:33:19.233Z,101144.66
2022-09-21T11:36:25.720Z,101145.37
2022-09-21T11:39:01.048Z,101142.05
2022-09-21T11:41:59.419Z,101139.44
2022-09-21T11:45:02.387Z,101136.45
2022-09-21T11:47:56.424Z,101133.52
2022-09-21T11:50:34.995Z,101131.77
2022-09-21T11:53:12.800Z,101128.09
2022-09-21T11:56:18.754Z,101125.65
2022-09-21T11:59:29.622Z,101125.25
2022-09-21T12:02:26.075Z,101126.96
2022-09-21T12:05:20.098Z,101123.15
2022-09-21T12:08:15.217Z,101123.88
2022-09-21T12:10:51.443Z,101125.30
2022-09-21T12:13:30.602Z,101118.75
2022-09-21T12:16:24.126Z,101116.32
2022-09-21T12:19:04.824Z,101111.09
2022-09-21T12:21:47.748Z,101115.05
2022-09-21T12:24:32.046Z,101116.42
2022-09-21T12:27:36.615Z,101111.41
2022-09-21T12:30:17.468Z,101108.13
2022-09-21T12:32:53.605Z,101110.58
2022-09-21T12:35:37.023Z,101108.14
2022-09-21T12:41:25.578Z,101100.25
2022-09-21T12:44:00.878Z,101102.81
2022-09-21T12:46:37.641Z,101097.10
2022-09-21T12:49:16.354Z,101094.55
2022-09-21T12:51:55.191Z,101097.36
2022-09-21T12:54:50.409Z,101098.10
2022-09-21T12:58:19.431Z,101099.16
2022-09-21T13:01:15.217Z,101099.54
2022-09-21T13:04:29.791Z,101103.89
2022-09-21T13:07:02.664Z,101099.55
2022-09-21T13:09:39.627Z,101102.81
2022-09-21T13:12:35.049Z,101099.16
2022-09-21T13:15:22.327Z,101102.77
2022-09-21T13:18:08.524Z,101096.30
2022-09-21T13:20:44.042Z,101097.83
2022-09-21T13:23:20.063Z,101100.22
2022-09-21T13:26:03.525Z,101113.40
2022-09-21T13:28:51.710Z,101144.30
2022-09-21T13:31:54.752Z,101144.59
2022-09-21T13:35:29.388Z,101151.76
2022-09-21T13:38:34.650Z,101147.79
2022-09-21T13:41:10.020Z,101146.25
2022-09-21T13:43:51.501Z,101146.08
2022-09-21T13:46:36.718Z,101145.39
2022-09-21T13:49:07.053Z,101142.45
2022-09-21T13:51:51.409Z,101142.98
2022-09-21T13:54:25.763Z,101137.44
2022-09-21T13:57:37.201Z,101136.25
2022-09-21T14:00:14.315Z,101138.66
2022-09-21T14:02:58.651Z,101137.45
2022-09-21T14:05:55.739Z,101134.01
2022-09-21T14:08:34.838Z,101137.44
2022-09-21T14:11:10.123Z,101134.68
2022-09-21T14:13:44.388Z,101133.65
2022-09-21T14:16:34.730Z,101130.52
2022-09-21T14:19:27.249Z,101128.77
2022-09-21T14:22:06.629Z,101132.94
2022-09-21T14:24:44.449Z,101133.83
2022-09-21T14:27:45.313Z,101135.54
2022-09-21T14:30:25.251Z,101129.50
2022-09-21T14:33:14.608Z,101131.91
2022-09-21T14:35:47.786Z,101129.85
2022-09-21T14:38:26.420Z,101129.84
2022-09-21T14:41:03.387Z,101127.77
2022-09-21T14:43:35.795Z,101126.39
2022-09-21T14:46:20.361Z,101130.70
2022-09-21T14:49:19.120Z,101132.26
2022-09-21T14:52:12.315Z,101131.56
2022-09-21T14:55:17.527Z,101130.19
2022-09-21T14:58:01.250Z,101129.83
2022-09-21T15:00:50.646Z,101127.06
2022-09-21T15:03:32.234Z,101130.70
2022-09-21T15:10:55.326Z,101150.94
2022-09-21T15:13:45.254Z,101151.10
2022-09-21T15:16:40.453Z,101145.89
2022-09-21T15:19:37.793Z,101148.64
2022-09-21T15:22:21.783Z,101147.06
2022-09-21T15:25:00.554Z,101149.31
2022-09-21T15:27:33.800Z,101147.58
2022-09-21T15:30:08.641Z,101147.05
2022-09-21T15:32:38.752Z,101145.65
2022-09-21T15:35:27.845Z,101147.71
2022-09-21T15:38:02.626Z,101149.96
2022-09-21T15:40:37.866Z,101150.83
2022-09-21T15:43:21.013Z,101149.27
2022-09-21T15:45:56.140Z,101153.59
2022-09-21T15:48:34.241Z,101148.41
2022-09-21T15:51:14.886Z,101153.59
2022-09-21T15:53:56.270Z,101151.17
2022-09-21T15:56:30.661Z,101152.06
2022-09-21T15:59:08.273Z,101154.34
2022-09-21T16:01:47.913Z,101154.86
2022-09-21T16:04:23.353Z,101154.01
2022-09-21T16:07:26.550Z,101158.00
2022-09-21T16:09:56.951Z,101162.16
2022-09-21T16:12:36.409Z,101159.89
2022-09-21T16:15:19.911Z,101159.73
2022-09-21T16:18:05.558Z,101167.34
2022-09-21T16:20:49.031Z,101167.55
2022-09-21T16:23:23.640Z,101168.23
2022-09-21T16:26:00.983Z,101171.34
2022-09-21T16:28:42.763Z,101177.05
2022-09-21T16:31:37.714Z,101175.84
2022-09-21T16:34:19.258Z,101176.71
2022-09-21T16:36:51.983Z,101181.73
2022-09-21T16:39:24.141Z,101177.74
2022-09-21T16:42:00.336Z,101179.13
2022-09-21T16:44:51.300Z,101179.83
2022-09-21T16:47:28.614Z,101178.96
2022-09-21T16:51:04.121Z,101178.96
2022-09-21T16:53:36.653Z,101184.45
2022-09-21T16:56:07.663Z,101186.19
2022-09-21T16:58:38.356Z,101185.32
2022-09-21T17:01:22.208Z,101188.43
2022-09-21T17:03:53.272Z,101194.32
2022-09-21T17:06:24.217Z,101195.36
2022-09-21T17:08:55.638Z,101196.22
2022-09-21T17:11:26.359Z,101208.15
2022-09-21T17:14:01.753Z,101208.32
2022-09-21T17:16:32.497Z,101206.77
2022-09-21T17:19:03.927Z,101207.80
2022-09-21T17:21:34.219Z,101210.57
2022-09-21T17:24:04.223Z,101214.73
2022-09-21T17:26:35.041Z,101217.31
2022-09-21T17:29:22.753Z,101221.46
2022-09-21T17:31:56.810Z,101220.27
2022-09-21T17:34:35.412Z,101223.02
2022-09-21T17:37:07.814Z,101222.51
2022-09-21T17:39:38.931Z,101224.75
2022-09-21T17:42:15.428Z,101226.31
2022-09-21T17:45:13.309Z,101223.54
2022-09-21T17:47:46.949Z,101222.33
2022-09-21T17:50:29.597Z,101226.65
2022-09-21T17:53:17.695Z,101228.55
2022-09-21T17:55:54.757Z,101230.80
2022-09-21T17:58:49.529Z,101228.02
2022-09-21T18:01:33.629Z,101233.73
2022-09-21T18:04:05.723Z,101232.36
2022-09-21T18:06:37.130Z,101230.63
2022-09-21T18:09:08.184Z,101233.91
2022-09-21T18:12:24.896Z,101234.95
2022-09-21T18:15:09.061Z,101236.67
2022-09-21T18:18:05.097Z,101233.58
2022-09-21T18:21:02.469Z,101236.86
2022-09-21T18:24:31.028Z,101238.77
2022-09-21T18:27:30.734Z,101242.04
2022-09-21T18:30:06.079Z,101241.48
2022-09-21T18:33:19.483Z,101246.16
2022-09-21T18:36:26.386Z,101251.17
2022-09-21T18:39:16.591Z,101253.06
2022-09-21T18:41:56.264Z,101250.48
2022-09-21T18:44:36.326Z,101255.14
2022-09-21T18:47:29.841Z,101258.25
2022-09-21T18:50:10.680Z,101261.54
2022-09-21T18:52:52.310Z,101263.43
2022-09-21T18:55:33.226Z,101262.56
2022-09-21T18:58:03.993Z,101263.73
2022-09-21T19:00:36.282Z,101262.73
2022-09-21T19:03:18.162Z,101263.42
2022-09-21T19:06:05.402Z,101263.43
2022-09-21T19:09:12.794Z,101261.84
2022-09-21T19:12:05.546Z,101265.30
2022-09-21T19:14:59.547Z,101262.17
2022-09-21T19:17:38.274Z,101259.02
2022-09-21T19:20:50.271Z,101257.27
2022-09-21T19:23:44.914Z,101251.52
2022-09-21T19:26:30.264Z,101259.77
2022-09-21T19:29:31.362Z,101263.20
2022-09-21T19:32:04.100Z,101265.29
2022-09-21T19:34:34.472Z,101265.27
2022-09-21T19:37:07.922Z,101267.19
2022-09-21T19:39:39.716Z,101266.67
2022-09-21T19:42:35.295Z,101261.48
2022-09-21T19:45:29.988Z,101266.66
2022-09-21T19:48:07.068Z,101261.30
2022-09-21T19:50:55.011Z,101261.42
2022-09-21T19:53:43.681Z,101261.04
2022-09-21T19:56:34.588Z,101263.55
2022-09-21T19:59:22.304Z,101266.10
2022-09-21T20:01:58.243Z,101266.41
2022-09-21T20:04:34.432Z,101273.33
2022-09-21T20:07:43.066Z,101268.13
2022-09-21T20:10:25.501Z,101264.66
2022-09-21T20:13:31.849Z,101265.16
2022-09-21T20:16:33.490Z,101270.81
2022-09-21T20:19:06.584Z,101268.02
2022-09-21T20:21:42.893Z,101270.59
2022-09-21T20:24:25.149Z,101267.25
2022-09-21T20:26:55.653Z,101266.54
2022-09-21T20:29:26.282Z,101263.39
2022-09-21T20:31:57.264Z,101261.08
2022-09-21T20:34:28.280Z,101264.36
2022-09-21T20:36:58.870Z,101258.84
2022-09-21T20:39:29.024Z,101261.95
2022-09-21T20:42:00.116Z,101263.34
2022-09-21T20:44:30.254Z,101260.58
2022-09-21T20:47:00.087Z,101260.23
2022-09-21T20:49:32.093Z,101257.98
2022-09-21T20:52:02.449Z,101255.73
2022-09-21T20:54:32.983Z,101256.05
2022-09-21T20:57:03.313Z,101258.45
2022-09-21T20:59:41.411Z,101260.65
2022-09-21T21:02:13.734Z,101257.87
2022-09-21T21:04:44.025Z,101254.45
2022-09-21T21:07:14.246Z,101255.52
2022-09-21T21:09:44.471Z,101253.78
2022-09-21T21:12:16.367Z,101252.40
2022-09-21T21:14:46.577Z,101253.10
2022-09-21T21:17:17.080Z,101257.23
2022-09-21T21:19:47.495Z,101255.30
2022-09-21T21:22:17.760Z,101260.45
2022-09-21T21:24:48.420Z,101263.20
2022-09-21T21:27:24.163Z,101261.45
2022-09-21T21:29:56.257Z,101256.59
2022-09-21T21:32:28.220Z,101265.20
2022-09-21T21:34:58.514Z,101261.52
2022-09-21T21:37:29.616Z,101263.83
2022-09-21T21:39:59.830Z,101263.61
2022-09-21T21:42:33.686Z,101262.90
2022-09-21T21:45:03.958Z,101262.38
2022-09-21T21:47:41.599Z,101260.48
2022-09-21T21:50:13.073Z,101264.98
2022-09-21T21:52:45.447Z,101260.86
2022-09-21T21:55:15.973Z,101257.56
2022-09-21T21:57:46.275Z,101255.80
2022-09-21T22:00:16.746Z,101254.16
2022-09-21T22:02:47.245Z,101249.98
2022-09-21T22:05:17.540Z,101252.69
2022-09-21T22:07:47.740Z,101249.88
2022-09-21T22:10:18.181Z,101249.35
2022-09-21T22:12:48.806Z,101250.73
2022-09-21T22:15:20.569Z,101249.20
2022-09-21T22:17:51.220Z,101253.34
2022-09-21T22:20:23.254Z,101250.90
2022-09-21T22:22:53.253Z,101257.58
2022-09-21T22:25:23.471Z,101258.02
2022-09-21T22:27:53.594Z,101252.79
2022-09-21T22:30:24.129Z,101252.25
2022-09-21T22:32:54.792Z,101251.91
2022-09-21T22:35:25.304Z,101251.73
2022-09-21T22:37:56.521Z,101251.90
2022-09-21T22:40:28.891Z,101251.92
2022-09-21T22:42:59.422Z,101251.95
2022-09-21T22:45:29.793Z,101252.64
2022-09-21T22:48:00.134Z,101253.18
2022-09-21T22:50:30.569Z,101249.92
2022-09-21T22:53:00.656Z,101252.09
2022-09-21T22:55:33.994Z,101251.33
2022-09-21T22:58:04.299Z,101249.52
2022-09-21T23:00:34.449Z,101251.39
2022-09-21T23:03:04.751Z,101250.58
2022-09-21T23:05:35.278Z,101253.42
2022-09-21T23:08:06.501Z,101255.58
2022-09-21T23:10:36.813Z,101256.93
2022-09-21T23:13:09.429Z,101256.58
2022-09-21T23:15:39.591Z,101255.89
2022-09-21T23:18:10.042Z,101249.36
2022-09-21T23:20:40.271Z,101252.66
2022-09-21T23:23:10.639Z,101250.25
2022-09-21T23:25:41.037Z,101250.81
2022-09-21T23:28:11.242Z,101251.70
2022-09-21T23:30:41.312Z,101255.65
2022-09-21T23:33:11.776Z,101253.56
2022-09-21T23:35:43.688Z,101253.52
2022-09-21T23:38:14.032Z,101255.91
2022-09-21T23:40:44.428Z,101257.95
2022-09-21T23:43:14.717Z,101255.89
2022-09-21T23:45:45.151Z,101256.58
2022-09-21T23:48:15.481Z,101255.37
2022-09-21T23:50:45.968Z,101250.36
2022-09-21T23:57:44.741Z,101245.16
